sensor_id;sensor_type;location;lat;lon;timestamp;temperature;humidity
14670;DHT22;7423;48.722;9.350;2023-04-03T00:01:03;8.90;99.90
14670;DHT22;7423;48.722;9.350;2023-04-03T00:03:30;8.90;99.90
14670;DHT22;7423;48.722;9.350;2023-04-03T00:05:57;8.80;99.90
14670;DHT22;7423;48.722;9.350;2023-04-03T00:08:24;8.80;99.90
14670;DHT22;7423;48.722;9.350;2023-04-03T00:10:51;8.80;99.90
14670;DHT22;7423;48.722;9.350;2023-04-03T00:13:18;8.70;99.90
14670;DHT22;7423;48.722;9.350;2023-04-03T00:15:45;8.70;99.90
14670;DHT22;7423;48.722;9.350;2023-04-03T00:18:15;8.70;99.90
14670;DHT22;7423;48.722;9.350;2023-04-03T00:20:41;8.70;99.90
14670;DHT22;7423;48.722;9.350;2023-04-03T00:23:08;8.70;99.90
14670;DHT22;7423;48.722;9.350;2023-04-03T00:25:36;8.60;99.90
14670;DHT22;7423;48.722;9.350;2023-04-03T00:28:04;8.60;99.90
14670;DHT22;7423;48.722;9.350;2023-04-03T00:30:31;8.70;99.90
14670;DHT22;7423;48.722;9.350;2023-04-03T00:32:58;8.70;99.90
14670;DHT22;7423;48.722;9.350;2023-04-03T00:35:26;8.70;99.90
14670;DHT22;7423;48.722;9.350;2023-04-03T00:37:54;8.60;99.90
14670;DHT22;7423;48.722;9.350;2023-04-03T00:40:24;8.60;99.90
14670;DHT22;7423;48.722;9.350;2023-04-03T00:42:58;8.60;99.90
14670;DHT22;7423;48.722;9.350;2023-04-03T00:45:31;8.60;99.90
14670;DHT22;7423;48.722;9.350;2023-04-03T00:48:03;8.50;99.90
14670;DHT22;7423;48.722;9.350;2023-04-03T00:50:35;8.50;99.90
14670;DHT22;7423;48.722;9.350;2023-04-03T00:53:06;8.50;99.90
14670;DHT22;7423;48.722;9.350;2023-04-03T00:55:35;8.50;99.90
14670;DHT22;7423;48.722;9.350;2023-04-03T00:58:03;8.50;99.90
14670;DHT22;7423;48.722;9.350;2023-04-03T01:00:30;8.40;99.90
14670;DHT22;7423;48.722;9.350;2023-04-03T01:02:57;8.40;99.90
14670;DHT22;7423;48.722;9.350;2023-04-03T01:05:24;8.40;99.90
14670;DHT22;7423;48.722;9.350;2023-04-03T01:07:52;8.40;99.90
14670;DHT22;7423;48.722;9.350;2023-04-03T01:10:20;8.40;99.90
14670;DHT22;7423;48.722;9.350;2023-04-03T01:12:49;8.40;99.90
14670;DHT22;7423;48.722;9.350;2023-04-03T01:15:24;8.40;99.90
14670;DHT22;7423;48.722;9.350;2023-04-03T01:17:54;8.40;99.90
14670;DHT22;7423;48.722;9.350;2023-04-03T01:25:41;8.40;99.90
14670;DHT22;7423;48.722;9.350;2023-04-03T01:28:12;8.40;99.90
14670;DHT22;7423;48.722;9.350;2023-04-03T01:33:52;8.40;99.90
14670;DHT22;7423;48.722;9.350;2023-04-03T01:36:28;8.30;99.90
14670;DHT22;7423;48.722;9.350;2023-04-03T01:38:57;8.30;99.90
14670;DHT22;7423;48.722;9.350;2023-04-03T01:41:26;8.30;99.90
14670;DHT22;7423;48.722;9.350;2023-04-03T01:43:53;8.30;99.90
14670;DHT22;7423;48.722;9.350;2023-04-03T01:46:21;8.30;99.90
14670;DHT22;7423;48.722;9.350;2023-04-03T01:48:48;8.30;99.90
14670;DHT22;7423;48.722;9.350;2023-04-03T01:51:15;8.30;99.90
14670;DHT22;7423;48.722;9.350;2023-04-03T01:53:42;8.30;99.90
14670;DHT22;7423;48.722;9.350;2023-04-03T01:56:09;8.30;99.90
14670;DHT22;7423;48.722;9.350;2023-04-03T01:58:36;8.20;99.90
14670;DHT22;7423;48.722;9.350;2023-04-03T02:01:03;8.30;99.90
14670;DHT22;7423;48.722;9.350;2023-04-03T02:03:30;8.30;99.90
14670;DHT22;7423;48.722;9.350;2023-04-03T02:05:57;8.20;99.90
14670;DHT22;7423;48.722;9.350;2023-04-03T02:08:24;8.20;99.90
14670;DHT22;7423;48.722;9.350;2023-04-03T02:10:51;8.20;99.90
14670;DHT22;7423;48.722;9.350;2023-04-03T02:13:19;8.20;99.90
14670;DHT22;7423;48.722;9.350;2023-04-03T02:15:46;8.20;99.90
14670;DHT22;7423;48.722;9.350;2023-04-03T02:18:14;8.20;99.90
14670;DHT22;7423;48.722;9.350;2023-04-03T02:20:41;8.20;99.90
14670;DHT22;7423;48.722;9.350;2023-04-03T02:23:08;8.30;99.90
14670;DHT22;7423;48.722;9.350;2023-04-03T02:25:35;8.30;99.90
14670;DHT22;7423;48.722;9.350;2023-04-03T02:28:04;8.30;99.90
14670;DHT22;7423;48.722;9.350;2023-04-03T02:30:31;8.30;99.90
14670;DHT22;7423;48.722;9.350;2023-04-03T02:32:58;8.20;99.90
14670;DHT22;7423;48.722;9.350;2023-04-03T02:35:25;8.20;99.90
14670;DHT22;7423;48.722;9.350;2023-04-03T02:37:52;8.30;99.90
14670;DHT22;7423;48.722;9.350;2023-04-03T02:40:19;8.30;99.90
14670;DHT22;7423;48.722;9.350;2023-04-03T02:42:46;8.30;99.90
14670;DHT22;7423;48.722;9.350;2023-04-03T02:45:13;8.30;99.90
14670;DHT22;7423;48.722;9.350;2023-04-03T02:47:40;8.30;99.90
14670;DHT22;7423;48.722;9.350;2023-04-03T02:50:07;8.30;99.90
14670;DHT22;7423;48.722;9.350;2023-04-03T02:52:34;8.40;99.90
14670;DHT22;7423;48.722;9.350;2023-04-03T02:55:01;8.40;99.90
14670;DHT22;7423;48.722;9.350;2023-04-03T02:57:28;8.40;99.90
14670;DHT22;7423;48.722;9.350;2023-04-03T02:59:55;8.40;99.90
14670;DHT22;7423;48.722;9.350;2023-04-03T03:02:21;8.40;99.90
14670;DHT22;7423;48.722;9.350;2023-04-03T03:04:48;8.40;99.90
14670;DHT22;7423;48.722;9.350;2023-04-03T03:07:15;8.40;99.90
14670;DHT22;7423;48.722;9.350;2023-04-03T03:09:42;8.40;99.90
14670;DHT22;7423;48.722;9.350;2023-04-03T03:12:09;8.40;99.90
14670;DHT22;7423;48.722;9.350;2023-04-03T03:14:36;8.40;99.90
14670;DHT22;7423;48.722;9.350;2023-04-03T03:17:03;8.40;99.90
14670;DHT22;7423;48.722;9.350;2023-04-03T03:19:30;8.40;99.90
14670;DHT22;7423;48.722;9.350;2023-04-03T03:21:57;8.40;99.90
14670;DHT22;7423;48.722;9.350;2023-04-03T03:24:23;8.40;99.90
14670;DHT22;7423;48.722;9.350;2023-04-03T03:26:50;8.40;99.90
14670;DHT22;7423;48.722;9.350;2023-04-03T03:29:17;8.40;99.90
14670;DHT22;7423;48.722;9.350;2023-04-03T03:31:44;8.40;99.90
14670;DHT22;7423;48.722;9.350;2023-04-03T03:34:12;8.40;99.90
14670;DHT22;7423;48.722;9.350;2023-04-03T03:36:39;8.40;99.90
14670;DHT22;7423;48.722;9.350;2023-04-03T03:39:06;8.40;99.90
14670;DHT22;7423;48.722;9.350;2023-04-03T03:41:33;8.40;99.90
14670;DHT22;7423;48.722;9.350;2023-04-03T03:44:00;8.40;99.90
14670;DHT22;7423;48.722;9.350;2023-04-03T03:46:26;8.40;99.90
14670;DHT22;7423;48.722;9.350;2023-04-03T03:48:53;8.40;99.90
14670;DHT22;7423;48.722;9.350;2023-04-03T03:51:20;8.40;99.90
14670;DHT22;7423;48.722;9.350;2023-04-03T03:53:47;8.40;99.90
14670;DHT22;7423;48.722;9.350;2023-04-03T03:56:14;9.10;99.90
14670;DHT22;7423;48.722;9.350;2023-04-03T03:58:41;8.40;99.90
14670;DHT22;7423;48.722;9.350;2023-04-03T04:01:08;8.40;99.90
14670;DHT22;7423;48.722;9.350;2023-04-03T04:03:35;8.40;99.90
14670;DHT22;7423;48.722;9.350;2023-04-03T04:06:02;8.40;99.90
14670;DHT22;7423;48.722;9.350;2023-04-03T04:08:29;8.40;99.90
14670;DHT22;7423;48.722;9.350;2023-04-03T04:10:56;8.40;99.90
14670;DHT22;7423;48.722;9.350;2023-04-03T04:13:23;8.40;99.90
14670;DHT22;7423;48.722;9.350;2023-04-03T04:15:50;8.50;99.90
14670;DHT22;7423;48.722;9.350;2023-04-03T04:18:17;8.50;99.90
14670;DHT22;7423;48.722;9.350;2023-04-03T04:20:46;10.40;99.90
14670;DHT22;7423;48.722;9.350;2023-04-03T04:23:13;8.40;99.90
14670;DHT22;7423;48.722;9.350;2023-04-03T04:25:40;8.40;99.90
14670;DHT22;7423;48.722;9.350;2023-04-03T04:28:07;8.40;99.90
14670;DHT22;7423;48.722;9.350;2023-04-03T04:30:34;8.40;99.90
14670;DHT22;7423;48.722;9.350;2023-04-03T04:33:01;8.40;99.90
14670;DHT22;7423;48.722;9.350;2023-04-03T04:35:28;8.40;99.90
14670;DHT22;7423;48.722;9.350;2023-04-03T04:37:55;8.40;99.90
14670;DHT22;7423;48.722;9.350;2023-04-03T04:40:22;8.40;99.90
14670;DHT22;7423;48.722;9.350;2023-04-03T04:42:49;8.40;99.90
14670;DHT22;7423;48.722;9.350;2023-04-03T04:45:16;8.40;99.90
14670;DHT22;7423;48.722;9.350;2023-04-03T04:47:43;8.40;99.90
14670;DHT22;7423;48.722;9.350;2023-04-03T04:50:11;8.40;99.90
14670;DHT22;7423;48.722;9.350;2023-04-03T04:52:38;8.40;99.90
14670;DHT22;7423;48.722;9.350;2023-04-03T04:55:05;8.40;99.90
14670;DHT22;7423;48.722;9.350;2023-04-03T04:57:32;8.40;99.90
14670;DHT22;7423;48.722;9.350;2023-04-03T04:59:59;8.40;99.90
14670;DHT22;7423;48.722;9.350;2023-04-03T05:02:26;8.50;99.90
14670;DHT22;7423;48.722;9.350;2023-04-03T05:04:53;8.50;99.90
14670;DHT22;7423;48.722;9.350;2023-04-03T05:07:22;8.50;99.90
14670;DHT22;7423;48.722;9.350;2023-04-03T05:09:49;8.50;99.90
14670;DHT22;7423;48.722;9.350;2023-04-03T05:12:16;8.50;99.90
14670;DHT22;7423;48.722;9.350;2023-04-03T05:14:43;8.50;99.90
14670;DHT22;7423;48.722;9.350;2023-04-03T05:17:10;8.50;99.90
14670;DHT22;7423;48.722;9.350;2023-04-03T05:19:37;8.50;99.90
14670;DHT22;7423;48.722;9.350;2023-04-03T05:22:03;8.40;99.90
14670;DHT22;7423;48.722;9.350;2023-04-03T05:24:30;8.40;99.90
14670;DHT22;7423;48.722;9.350;2023-04-03T05:26:57;8.40;99.90
14670;DHT22;7423;48.722;9.350;2023-04-03T05:29:24;8.40;99.90
14670;DHT22;7423;48.722;9.350;2023-04-03T05:31:51;8.20;99.90
14670;DHT22;7423;48.722;9.350;2023-04-03T05:34:18;8.40;99.90
14670;DHT22;7423;48.722;9.350;2023-04-03T05:36:45;8.40;99.90
14670;DHT22;7423;48.722;9.350;2023-04-03T05:39:12;8.40;99.90
14670;DHT22;7423;48.722;9.350;2023-04-03T05:41:39;8.40;99.90
14670;DHT22;7423;48.722;9.350;2023-04-03T05:44:06;8.40;99.90
14670;DHT22;7423;48.722;9.350;2023-04-03T05:46:33;8.60;99.90
14670;DHT22;7423;48.722;9.350;2023-04-03T05:49:00;8.40;99.90
14670;DHT22;7423;48.722;9.350;2023-04-03T05:51:36;8.40;99.90
14670;DHT22;7423;48.722;9.350;2023-04-03T05:54:40;8.30;99.90
14670;DHT22;7423;48.722;9.350;2023-04-03T05:57:00;8.30;99.90
14670;DHT22;7423;48.722;9.350;2023-04-03T05:59:27;8.30;99.90
14670;DHT22;7423;48.722;9.350;2023-04-03T06:01:54;9.40;99.90
14670;DHT22;7423;48.722;9.350;2023-04-03T06:04:21;8.10;99.90
14670;DHT22;7423;48.722;9.350;2023-04-03T06:06:56;8.10;99.90
14670;DHT22;7423;48.722;9.350;2023-04-03T06:09:26;8.20;99.90
14670;DHT22;7423;48.722;9.350;2023-04-03T06:11:55;8.20;99.90
14670;DHT22;7423;48.722;9.350;2023-04-03T06:14:25;8.20;99.90
14670;DHT22;7423;48.722;9.350;2023-04-03T06:16:52;8.20;99.90
14670;DHT22;7423;48.722;9.350;2023-04-03T06:19:21;8.30;99.90
14670;DHT22;7423;48.722;9.350;2023-04-03T06:21:48;8.30;99.90
14670;DHT22;7423;48.722;9.350;2023-04-03T06:24:16;8.20;99.90
14670;DHT22;7423;48.722;9.350;2023-04-03T06:26:43;8.30;99.90
14670;DHT22;7423;48.722;9.350;2023-04-03T06:29:10;8.30;99.90
14670;DHT22;7423;48.722;9.350;2023-04-03T06:31:37;8.40;99.90
14670;DHT22;7423;48.722;9.350;2023-04-03T06:34:04;8.20;99.90
14670;DHT22;7423;48.722;9.350;2023-04-03T06:36:35;8.40;99.90
14670;DHT22;7423;48.722;9.350;2023-04-03T06:39:02;8.40;99.90
14670;DHT22;7423;48.722;9.350;2023-04-03T06:41:30;8.40;99.90
14670;DHT22;7423;48.722;9.350;2023-04-03T06:43:57;8.40;99.90
14670;DHT22;7423;48.722;9.350;2023-04-03T06:46:26;8.50;99.90
14670;DHT22;7423;48.722;9.350;2023-04-03T06:48:53;8.50;99.90
14670;DHT22;7423;48.722;9.350;2023-04-03T06:51:26;8.50;99.90
14670;DHT22;7423;48.722;9.350;2023-04-03T06:53:55;8.50;99.90
14670;DHT22;7423;48.722;9.350;2023-04-03T06:56:24;8.50;99.90
14670;DHT22;7423;48.722;9.350;2023-04-03T06:58:52;8.50;99.90
14670;DHT22;7423;48.722;9.350;2023-04-03T07:01:21;8.50;99.90
14670;DHT22;7423;48.722;9.350;2023-04-03T07:03:48;8.60;99.90
14670;DHT22;7423;48.722;9.350;2023-04-03T07:06:16;8.50;99.90
14670;DHT22;7423;48.722;9.350;2023-04-03T07:08:45;8.60;99.90
14670;DHT22;7423;48.722;9.350;2023-04-03T07:11:12;8.60;99.90
14670;DHT22;7423;48.722;9.350;2023-04-03T07:13:39;8.60;99.90
14670;DHT22;7423;48.722;9.350;2023-04-03T07:16:07;8.70;99.90
14670;DHT22;7423;48.722;9.350;2023-04-03T07:18:35;8.60;99.90
14670;DHT22;7423;48.722;9.350;2023-04-03T07:21:03;8.70;99.90
14670;DHT22;7423;48.722;9.350;2023-04-03T07:23:30;8.70;99.90
14670;DHT22;7423;48.722;9.350;2023-04-03T07:25:57;8.80;99.90
14670;DHT22;7423;48.722;9.350;2023-04-03T07:28:24;8.80;99.90
14670;DHT22;7423;48.722;9.350;2023-04-03T07:30:58;8.90;99.90
14670;DHT22;7423;48.722;9.350;2023-04-03T07:33:30;8.90;99.90
14670;DHT22;7423;48.722;9.350;2023-04-03T07:35:58;8.70;99.90
14670;DHT22;7423;48.722;9.350;2023-04-03T07:38:25;8.70;99.90
14670;DHT22;7423;48.722;9.350;2023-04-03T07:40:52;8.70;99.90
14670;DHT22;7423;48.722;9.350;2023-04-03T07:43:20;8.80;99.90
14670;DHT22;7423;48.722;9.350;2023-04-03T07:45:49;8.80;99.90
14670;DHT22;7423;48.722;9.350;2023-04-03T07:48:19;8.90;99.90
14670;DHT22;7423;48.722;9.350;2023-04-03T07:50:47;9.00;99.90
14670;DHT22;7423;48.722;9.350;2023-04-03T07:53:14;8.90;99.90
14670;DHT22;7423;48.722;9.350;2023-04-03T07:55:41;8.90;99.90
14670;DHT22;7423;48.722;9.350;2023-04-03T07:58:12;8.80;99.90
14670;DHT22;7423;48.722;9.350;2023-04-03T08:00:42;8.90;99.90
14670;DHT22;7423;48.722;9.350;2023-04-03T08:03:10;9.00;99.90
14670;DHT22;7423;48.722;9.350;2023-04-03T08:05:42;9.00;99.90
14670;DHT22;7423;48.722;9.350;2023-04-03T08:08:13;9.00;99.90
14670;DHT22;7423;48.722;9.350;2023-04-03T08:10:53;9.10;99.90
14670;DHT22;7423;48.722;9.350;2023-04-03T08:13:21;9.10;99.90
14670;DHT22;7423;48.722;9.350;2023-04-03T08:15:49;9.00;99.90
14670;DHT22;7423;48.722;9.350;2023-04-03T08:18:16;9.10;99.90
14670;DHT22;7423;48.722;9.350;2023-04-03T08:20:43;9.30;99.90
14670;DHT22;7423;48.722;9.350;2023-04-03T08:23:11;9.30;99.90
14670;DHT22;7423;48.722;9.350;2023-04-03T08:25:39;9.40;99.90
14670;DHT22;7423;48.722;9.350;2023-04-03T08:28:08;9.60;99.90
14670;DHT22;7423;48.722;9.350;2023-04-03T08:30:35;9.60;99.90
14670;DHT22;7423;48.722;9.350;2023-04-03T08:33:03;9.50;99.90
14670;DHT22;7423;48.722;9.350;2023-04-03T08:35:30;9.40;99.90
14670;DHT22;7423;48.722;9.350;2023-04-03T08:37:57;9.30;99.90
14670;DHT22;7423;48.722;9.350;2023-04-03T08:40:24;9.30;99.90
14670;DHT22;7423;48.722;9.350;2023-04-03T08:43:21;9.40;99.90
14670;DHT22;7423;48.722;9.350;2023-04-03T08:46:08;9.20;99.90
14670;DHT22;7423;48.722;9.350;2023-04-03T08:48:42;9.30;99.90
14670;DHT22;7423;48.722;9.350;2023-04-03T08:51:19;9.20;99.90
14670;DHT22;7423;48.722;9.350;2023-04-03T08:56:24;9.20;99.90
14670;DHT22;7423;48.722;9.350;2023-04-03T08:58:56;9.50;99.90
14670;DHT22;7423;48.722;9.350;2023-04-03T09:01:37;9.70;99.90
14670;DHT22;7423;48.722;9.350;2023-04-03T09:04:14;9.90;99.90
14670;DHT22;7423;48.722;9.350;2023-04-03T09:06:48;10.00;99.90
14670;DHT22;7423;48.722;9.350;2023-04-03T09:12:18;10.30;99.90
14670;DHT22;7423;48.722;9.350;2023-04-03T09:15:02;10.30;99.90
14670;DHT22;7423;48.722;9.350;2023-04-03T09:18:19;10.10;99.20
14670;DHT22;7423;48.722;9.350;2023-04-03T09:23:51;10.00;99.90
14670;DHT22;7423;48.722;9.350;2023-04-03T09:26:36;10.10;99.70
14670;DHT22;7423;48.722;9.350;2023-04-03T09:29:07;10.10;99.50
14670;DHT22;7423;48.722;9.350;2023-04-03T09:31:43;9.90;98.80
14670;DHT22;7423;48.722;9.350;2023-04-03T09:34:32;9.90;99.00
14670;DHT22;7423;48.722;9.350;2023-04-03T09:37:03;10.10;99.40
14670;DHT22;7423;48.722;9.350;2023-04-03T09:39:49;10.30;99.30
14670;DHT22;7423;48.722;9.350;2023-04-03T09:42:22;10.40;98.70
14670;DHT22;7423;48.722;9.350;2023-04-03T09:44:55;10.60;97.50
14670;DHT22;7423;48.722;9.350;2023-04-03T09:52:45;10.80;96.30
14670;DHT22;7423;48.722;9.350;2023-04-03T09:55:20;10.80;96.20
14670;DHT22;7423;48.722;9.350;2023-04-03T09:58:05;10.80;96.40
14670;DHT22;7423;48.722;9.350;2023-04-03T10:00:58;10.80;96.60
14670;DHT22;7423;48.722;9.350;2023-04-03T10:03:31;10.90;96.90
14670;DHT22;7423;48.722;9.350;2023-04-03T10:06:03;11.00;96.90
14670;DHT22;7423;48.722;9.350;2023-04-03T10:08:34;10.90;96.80
14670;DHT22;7423;48.722;9.350;2023-04-03T10:11:13;10.60;97.30
14670;DHT22;7423;48.722;9.350;2023-04-03T10:13:53;10.30;98.20
14670;DHT22;7423;48.722;9.350;2023-04-03T10:16:35;10.40;98.40
14670;DHT22;7423;48.722;9.350;2023-04-03T10:22:19;10.70;97.00
14670;DHT22;7423;48.722;9.350;2023-04-03T10:28:02;10.40;97.20
14670;DHT22;7423;48.722;9.350;2023-04-03T10:33:42;10.50;97.90
14670;DHT22;7423;48.722;9.350;2023-04-03T10:36:44;10.50;97.80
14670;DHT22;7423;48.722;9.350;2023-04-03T10:39:23;10.50;97.90
14670;DHT22;7423;48.722;9.350;2023-04-03T10:44:59;10.60;97.40
14670;DHT22;7423;48.722;9.350;2023-04-03T10:50:52;10.50;97.50
14670;DHT22;7423;48.722;9.350;2023-04-03T10:53:44;10.50;97.40
14670;DHT22;7423;48.722;9.350;2023-04-03T10:59:32;10.40;97.40
14670;DHT22;7423;48.722;9.350;2023-04-03T11:02:13;10.40;97.50
14670;DHT22;7423;48.722;9.350;2023-04-03T11:04:49;10.30;97.30
14670;DHT22;7423;48.722;9.350;2023-04-03T11:07:21;10.30;97.30
14670;DHT22;7423;48.722;9.350;2023-04-03T11:09:53;10.40;97.40
14670;DHT22;7423;48.722;9.350;2023-04-03T11:12:51;10.40;97.40
14670;DHT22;7423;48.722;9.350;2023-04-03T11:15:20;10.50;97.10
14670;DHT22;7423;48.722;9.350;2023-04-03T11:18:01;10.60;96.90
14670;DHT22;7423;48.722;9.350;2023-04-03T11:20:32;10.60;96.70
14670;DHT22;7423;48.722;9.350;2023-04-03T11:25:33;10.20;96.60
14670;DHT22;7423;48.722;9.350;2023-04-03T11:28:06;10.30;96.80
14670;DHT22;7423;48.722;9.350;2023-04-03T11:30:49;10.40;96.70
14670;DHT22;7423;48.722;9.350;2023-04-03T11:35:58;10.50;96.30
14670;DHT22;7423;48.722;9.350;2023-04-03T11:38:37;10.60;96.30
14670;DHT22;7423;48.722;9.350;2023-04-03T11:41:08;10.50;94.90
14670;DHT22;7423;48.722;9.350;2023-04-03T11:46:51;10.50;95.70
14670;DHT22;7423;48.722;9.350;2023-04-03T11:49:51;10.50;95.20
14670;DHT22;7423;48.722;9.350;2023-04-03T12:00:53;10.60;95.10
14670;DHT22;7423;48.722;9.350;2023-04-03T12:06:41;10.20;94.30
14670;DHT22;7423;48.722;9.350;2023-04-03T12:08:45;10.10;95.50
14670;DHT22;7423;48.722;9.350;2023-04-03T12:11:14;10.30;95.40
14670;DHT22;7423;48.722;9.350;2023-04-03T12:18:59;10.20;95.10
14670;DHT22;7423;48.722;9.350;2023-04-03T12:29:25;11.10;94.30
14670;DHT22;7423;48.722;9.350;2023-04-03T12:35:05;10.70;93.30
14670;DHT22;7423;48.722;9.350;2023-04-03T12:37:59;10.50;93.10
14670;DHT22;7423;48.722;9.350;2023-04-03T12:46:22;10.60;94.20
14670;DHT22;7423;48.722;9.350;2023-04-03T12:48:59;10.70;93.60
14670;DHT22;7423;48.722;9.350;2023-04-03T12:51:39;10.80;94.10
14670;DHT22;7423;48.722;9.350;2023-04-03T12:54:18;10.90;93.40
14670;DHT22;7423;48.722;9.350;2023-04-03T12:56:47;10.90;93.70
14670;DHT22;7423;48.722;9.350;2023-04-03T12:59:20;11.00;94.20
14670;DHT22;7423;48.722;9.350;2023-04-03T13:01:59;11.10;93.70
14670;DHT22;7423;48.722;9.350;2023-04-03T13:04:28;11.30;93.30
14670;DHT22;7423;48.722;9.350;2023-04-03T13:06:57;11.00;92.50
14670;DHT22;7423;48.722;9.350;2023-04-03T13:09:26;10.90;93.30
14670;DHT22;7423;48.722;9.350;2023-04-03T13:12:00;10.90;92.90
14670;DHT22;7423;48.722;9.350;2023-04-03T13:14:29;11.00;92.80
14670;DHT22;7423;48.722;9.350;2023-04-03T13:17:10;11.00;93.20
14670;DHT22;7423;48.722;9.350;2023-04-03T13:19:40;11.10;93.60
14670;DHT22;7423;48.722;9.350;2023-04-03T13:22:31;11.10;93.30
14670;DHT22;7423;48.722;9.350;2023-04-03T13:25:05;11.10;92.90
14670;DHT22;7423;48.722;9.350;2023-04-03T13:27:34;11.00;92.00
14670;DHT22;7423;48.722;9.350;2023-04-03T13:30:04;11.00;93.00
14670;DHT22;7423;48.722;9.350;2023-04-03T13:32:31;11.00;92.20
14670;DHT22;7423;48.722;9.350;2023-04-03T13:34:59;10.90;92.40
14670;DHT22;7423;48.722;9.350;2023-04-03T13:37:55;10.90;93.00
14670;DHT22;7423;48.722;9.350;2023-04-03T13:40:26;11.00;93.30
14670;DHT22;7423;48.722;9.350;2023-04-03T13:43:22;11.20;93.40
14670;DHT22;7423;48.722;9.350;2023-04-03T13:48:46;11.30;93.10
14670;DHT22;7423;48.722;9.350;2023-04-03T13:53:57;11.50;92.90
14670;DHT22;7423;48.722;9.350;2023-04-03T13:56:39;11.30;91.90
14670;DHT22;7423;48.722;9.350;2023-04-03T14:01:45;11.50;92.80
14670;DHT22;7423;48.722;9.350;2023-04-03T14:04:18;11.60;92.60
14670;DHT22;7423;48.722;9.350;2023-04-03T14:06:52;11.50;92.40
14670;DHT22;7423;48.722;9.350;2023-04-03T14:09:21;11.50;92.40
14670;DHT22;7423;48.722;9.350;2023-04-03T14:11:50;11.50;92.20
14670;DHT22;7423;48.722;9.350;2023-04-03T14:14:25;11.30;90.90
14670;DHT22;7423;48.722;9.350;2023-04-03T14:16:57;11.20;91.10
14670;DHT22;7423;48.722;9.350;2023-04-03T14:19:33;11.00;91.00
14670;DHT22;7423;48.722;9.350;2023-04-03T14:22:12;10.90;90.70
14670;DHT22;7423;48.722;9.350;2023-04-03T14:24:50;11.00;92.00
14670;DHT22;7423;48.722;9.350;2023-04-03T14:27:32;11.10;92.00
14670;DHT22;7423;48.722;9.350;2023-04-03T14:30:01;11.30;91.80
14670;DHT22;7423;48.722;9.350;2023-04-03T14:32:30;11.40;91.40
14670;DHT22;7423;48.722;9.350;2023-04-03T14:34:57;11.50;91.60
14670;DHT22;7423;48.722;9.350;2023-04-03T14:37:27;11.60;91.10
14670;DHT22;7423;48.722;9.350;2023-04-03T14:39:57;11.30;90.60
14670;DHT22;7423;48.722;9.350;2023-04-03T14:42:31;11.30;90.60
14670;DHT22;7423;48.722;9.350;2023-04-03T14:45:05;11.40;91.90
14670;DHT22;7423;48.722;9.350;2023-04-03T14:47:34;11.40;91.00
14670;DHT22;7423;48.722;9.350;2023-04-03T14:50:17;11.40;91.90
14670;DHT22;7423;48.722;9.350;2023-04-03T14:52:48;11.20;91.20
14670;DHT22;7423;48.722;9.350;2023-04-03T14:55:20;11.10;92.70
14670;DHT22;7423;48.722;9.350;2023-04-03T14:57:49;11.30;91.80
14670;DHT22;7423;48.722;9.350;2023-04-03T15:00:18;11.10;91.30
14670;DHT22;7423;48.722;9.350;2023-04-03T15:02:46;10.70;91.20
14670;DHT22;7423;48.722;9.350;2023-04-03T15:05:15;10.40;91.80
14670;DHT22;7423;48.722;9.350;2023-04-03T15:07:47;10.70;92.70
14670;DHT22;7423;48.722;9.350;2023-04-03T15:10:22;10.90;92.70
14670;DHT22;7423;48.722;9.350;2023-04-03T15:12:58;11.10;92.70
14670;DHT22;7423;48.722;9.350;2023-04-03T15:15:29;11.10;91.20
14670;DHT22;7423;48.722;9.350;2023-04-03T15:17:57;11.10;91.80
14670;DHT22;7423;48.722;9.350;2023-04-03T15:20:25;11.20;91.90
14670;DHT22;7423;48.722;9.350;2023-04-03T15:22:54;11.10;91.90
14670;DHT22;7423;48.722;9.350;2023-04-03T15:25:23;11.10;92.00
14670;DHT22;7423;48.722;9.350;2023-04-03T15:27:56;11.10;91.60
14670;DHT22;7423;48.722;9.350;2023-04-03T15:30:23;10.90;91.50
14670;DHT22;7423;48.722;9.350;2023-04-03T15:32:50;10.80;91.30
14670;DHT22;7423;48.722;9.350;2023-04-03T15:35:17;10.60;91.50
14670;DHT22;7423;48.722;9.350;2023-04-03T15:37:44;10.50;91.70
14670;DHT22;7423;48.722;9.350;2023-04-03T15:40:11;10.20;91.90
14670;DHT22;7423;48.722;9.350;2023-04-03T15:42:39;10.30;91.90
14670;DHT22;7423;48.722;9.350;2023-04-03T15:45:07;10.50;92.20
14670;DHT22;7423;48.722;9.350;2023-04-03T15:47:34;10.50;91.50
14670;DHT22;7423;48.722;9.350;2023-04-03T15:50:03;10.70;91.00
14670;DHT22;7423;48.722;9.350;2023-04-03T15:52:32;10.90;91.90
14670;DHT22;7423;48.722;9.350;2023-04-03T15:54:59;11.10;91.00
14670;DHT22;7423;48.722;9.350;2023-04-03T15:57:26;11.30;91.40
14670;DHT22;7423;48.722;9.350;2023-04-03T15:59:53;11.40;90.90
14670;DHT22;7423;48.722;9.350;2023-04-03T16:02:20;12.50;91.60
14670;DHT22;7423;48.722;9.350;2023-04-03T16:04:48;11.30;89.80
14670;DHT22;7423;48.722;9.350;2023-04-03T16:07:15;11.10;89.40
14670;DHT22;7423;48.722;9.350;2023-04-03T16:09:42;11.10;90.20
14670;DHT22;7423;48.722;9.350;2023-04-03T16:12:09;10.80;88.70
14670;DHT22;7423;48.722;9.350;2023-04-03T16:14:36;10.90;90.60
14670;DHT22;7423;48.722;9.350;2023-04-03T16:17:03;11.00;90.30
14670;DHT22;7423;48.722;9.350;2023-04-03T16:19:30;11.20;90.60
14670;DHT22;7423;48.722;9.350;2023-04-03T16:21:57;11.10;90.10
14670;DHT22;7423;48.722;9.350;2023-04-03T16:24:24;11.40;90.70
14670;DHT22;7423;48.722;9.350;2023-04-03T16:26:50;11.70;90.80
14670;DHT22;7423;48.722;9.350;2023-04-03T16:29:19;11.80;89.40
14670;DHT22;7423;48.722;9.350;2023-04-03T16:31:46;11.90;90.30
14670;DHT22;7423;48.722;9.350;2023-04-03T16:34:13;12.00;90.60
14670;DHT22;7423;48.722;9.350;2023-04-03T16:36:40;12.10;88.40
14670;DHT22;7423;48.722;9.350;2023-04-03T16:39:07;11.90;86.20
14670;DHT22;7423;48.722;9.350;2023-04-03T16:41:36;11.90;89.80
14670;DHT22;7423;48.722;9.350;2023-04-03T16:44:03;12.00;89.30
14670;DHT22;7423;48.722;9.350;2023-04-03T16:46:30;12.10;89.50
14670;DHT22;7423;48.722;9.350;2023-04-03T16:48:56;12.20;89.00
14670;DHT22;7423;48.722;9.350;2023-04-03T16:51:23;12.20;88.40
14670;DHT22;7423;48.722;9.350;2023-04-03T16:53:51;12.00;86.20
14670;DHT22;7423;48.722;9.350;2023-04-03T16:56:17;11.90;87.60
14670;DHT22;7423;48.722;9.350;2023-04-03T16:58:45;11.80;88.20
14670;DHT22;7423;48.722;9.350;2023-04-03T17:01:14;11.70;88.50
14670;DHT22;7423;48.722;9.350;2023-04-03T17:03:43;11.60;86.00
14670;DHT22;7423;48.722;9.350;2023-04-03T17:06:12;11.60;87.30
14670;DHT22;7423;48.722;9.350;2023-04-03T17:08:44;11.60;88.80
14670;DHT22;7423;48.722;9.350;2023-04-03T17:11:12;11.40;86.30
14670;DHT22;7423;48.722;9.350;2023-04-03T17:13:39;11.20;86.80
14670;DHT22;7423;48.722;9.350;2023-04-03T17:16:09;11.20;88.30
14670;DHT22;7423;48.722;9.350;2023-04-03T17:18:38;11.20;89.00
14670;DHT22;7423;48.722;9.350;2023-04-03T17:21:05;11.20;88.80
14670;DHT22;7423;48.722;9.350;2023-04-03T17:23:34;11.30;88.50
14670;DHT22;7423;48.722;9.350;2023-04-03T17:26:03;11.20;88.50
14670;DHT22;7423;48.722;9.350;2023-04-03T17:28:30;11.30;88.50
14670;DHT22;7423;48.722;9.350;2023-04-03T17:30:59;11.20;88.90
14670;DHT22;7423;48.722;9.350;2023-04-03T17:33:27;11.20;88.90
14670;DHT22;7423;48.722;9.350;2023-04-03T17:35:57;11.20;88.70
14670;DHT22;7423;48.722;9.350;2023-04-03T17:38:27;11.20;88.70
14670;DHT22;7423;48.722;9.350;2023-04-03T17:40:58;11.10;89.10
14670;DHT22;7423;48.722;9.350;2023-04-03T17:43:26;11.00;89.00
14670;DHT22;7423;48.722;9.350;2023-04-03T17:45:56;11.00;89.90